Sacramento, California
Traffic Map
Current Weather Conditions
Sacramento, California
Clear
Clear
43°
Feels Like: 39°
Wind Chill: 39° Ceiling: Unl
Heat Index: 43° Visibility: 10mi
Dew Point: 35° Wind: 6mph
Humidity: 74% Direction: 320° (NW)
Pressure: 30.17in Gusts: 0mph
Raw Report DataKSAC 230553Z AUTO 32005KT 10SM CLR 06/02 A3017 RMK AO2 SLP216 T00610017 10128 20050 53006
Traffic Incident Summary
Active as of:
Severity:
Category:
InformationThere was an issue retrieving the traffic information for this location. Please try a different location or try again shortly.
Advertisements
Track Severe Weather on mobile